Arlington, MD

2:02 AM EST on March 04, 2015 (GMT -0500)
Reisterstown Road PLaza | Change Station
CLOSE
Current Station
Personal Weather Station
Location: Baltimore, MD
Elevation: 476 ft
Nearby Weather Stations
Active Advisory: Winter Storm Watch Active Notice: Public Information Statement

Elev 476 ft 39.36 °N, 76.71 °W | Updated 3 minutes ago

Mostly Cloudy
Mostly Cloudy
35.6 °F
Feels Like 36 °F
N
1.0
Wind Variable Wind from South
Gusts 3.0 mph

Today
High -- | Low -- °F
--% Chance of Precip.
Yesterday
High -- | Low -- °F
Precip. -- in
6:35 AM 6:02 PM
Waxing Gibbous, 98% visible
Pressure 29.82 in
Visibility 10.0 miles
Clouds Few 1400 ft
Scattered Clouds 6500 ft
Overcast 11000 ft
Windchill 36 °F
Dew Point 33 °F
Humidity 91%
Rainfall 0.00 in
Snow Depth Not available.
UV 0 out of 12
Pollen .60 out of 12
Air Quality Not available.
Flu Activity Not available.
METAR KBWI 040654Z 22008KT 10SM FEW014 SCT065 OVC110 03/02 A2981 RMK AO2 SLP097 T00330017

More Conditions Fewer Conditions

Pressure 29.82 in
Visibility 10.0 miles
Clouds Few 1400 ft
Scattered Clouds 6500 ft
Overcast 11000 ft
Windchill 36 °F
Dew Point 33 °F
Humidity 91%
Rainfall 0.00 in
Snow Depth Not available.
UV 0 out of 12
Pollen .60 out of 12
Air Quality Not available.
Flu Activity Not available.
METAR KBWI 040654Z 22008KT 10SM FEW014 SCT065 OVC110 03/02 A2981 RMK AO2 SLP097 T00330017

More Conditions Fewer Conditions

10-Day Weather Forecast

Almanac

Astronomy

Mar. 04, 2015 Rise Set
Actual Time
Civil Twilight
Nautical Twilight
Astronomical Twilight
Moon
Length of Visible Light
Length of Day
Tomorrow will be .
, % of the Moon is Illuminated

Today's Extremes

State Highs State Lows

Community

WunderPhotos

Upload Photos

1,802,402 photos uploaded!

WunderBlogs® & News

Nearby

Air Quality

  Air Quality AQ Index Pollutant
Not available.

Snow Depth

Station Depth Elevation

Earthquake Activity

City Distance Mag. Time & Date
Minimum magnitude displayed is 2.5.

Coastal Water Temperatures

Place Temperature

Nearby Weather Stations

Winter Storm Watch
Statement as of 1:57 AM EST on March 04, 2015

... Winter Storm Watch remains in effect from this evening through
Thursday evening...

* locations... Potomac Highlands and the northern Shenandoah
Valley.

* Hazard types... snow Wednesday night and Thursday... heavy at
times.

* Timing... rain changing to snow Wednesday evening. Snow may be
heavy at times Wednesday night into Thursday morning.

* Impacts... roads will be snow covered with visibility reduced
to near one-quarter mile at times. Traveling potentially will
be dangerous.

* Winds... northwest around 10 mph.

* Temperatures... 25 to 30 degrees.

Precautionary/preparedness actions...

A Winter Storm Watch means there is a potential for significant
snow... sleet... or ice accumulations that may impact travel.
Continue to monitor the latest forecasts.